sensor_id;sensor_type;location;lat;lon;timestamp;P1;durP1;ratioP1;P2;durP2;ratioP2
37781;SDS011;23621;50.878;4.584;2022-12-07T00:01:31;10.55;;;9.45;;
37781;SDS011;23621;50.878;4.584;2022-12-07T00:04:07;12.27;;;9.27;;
37781;SDS011;23621;50.878;4.584;2022-12-07T00:06:36;13.73;;;9.05;;
37781;SDS011;23621;50.878;4.584;2022-12-07T00:09:05;13.38;;;9.27;;
37781;SDS011;23621;50.878;4.584;2022-12-07T00:11:36;11.32;;;9.05;;
37781;SDS011;23621;50.878;4.584;2022-12-07T00:14:05;13.40;;;9.35;;
37781;SDS011;23621;50.878;4.584;2022-12-07T00:16:34;11.25;;;9.15;;
37781;SDS011;23621;50.878;4.584;2022-12-07T00:19:01;11.55;;;9.38;;
37781;SDS011;23621;50.878;4.584;2022-12-07T00:21:30;11.30;;;9.25;;
37781;SDS011;23621;50.878;4.584;2022-12-07T00:23:59;12.25;;;9.38;;
37781;SDS011;23621;50.878;4.584;2022-12-07T00:26:27;11.25;;;9.57;;
37781;SDS011;23621;50.878;4.584;2022-12-07T00:28:57;14.00;;;10.13;;
37781;SDS011;23621;50.878;4.584;2022-12-07T00:31:44;10.20;;;9.10;;
37781;SDS011;23621;50.878;4.584;2022-12-07T00:34:12;15.57;;;9.70;;
37781;SDS011;23621;50.878;4.584;2022-12-07T00:36:44;10.68;;;9.05;;
37781;SDS011;23621;50.878;4.584;2022-12-07T00:39:11;10.75;;;9.00;;
37781;SDS011;23621;50.878;4.584;2022-12-07T00:41:38;11.90;;;9.50;;
37781;SDS011;23621;50.878;4.584;2022-12-07T00:44:05;12.00;;;9.32;;
37781;SDS011;23621;50.878;4.584;2022-12-07T00:46:32;9.65;;;8.65;;
37781;SDS011;23621;50.878;4.584;2022-12-07T00:48:59;12.90;;;9.25;;
37781;SDS011;23621;50.878;4.584;2022-12-07T00:51:26;14.98;;;10.07;;
37781;SDS011;23621;50.878;4.584;2022-12-07T00:53:53;11.38;;;9.25;;
37781;SDS011;23621;50.878;4.584;2022-12-07T00:56:22;11.27;;;9.98;;
37781;SDS011;23621;50.878;4.584;2022-12-07T00:58:53;10.85;;;9.00;;
37781;SDS011;23621;50.878;4.584;2022-12-07T01:01:22;12.60;;;9.45;;
37781;SDS011;23621;50.878;4.584;2022-12-07T01:03:50;11.95;;;8.98;;
37781;SDS011;23621;50.878;4.584;2022-12-07T01:06:18;13.90;;;10.32;;
37781;SDS011;23621;50.878;4.584;2022-12-07T01:08:46;11.95;;;9.88;;
37781;SDS011;23621;50.878;4.584;2022-12-07T01:11:14;11.32;;;9.77;;
37781;SDS011;23621;50.878;4.584;2022-12-07T01:13:43;13.15;;;9.50;;
37781;SDS011;23621;50.878;4.584;2022-12-07T01:16:12;12.35;;;10.10;;
37781;SDS011;23621;50.878;4.584;2022-12-07T01:18:42;12.73;;;9.18;;
37781;SDS011;23621;50.878;4.584;2022-12-07T01:21:13;11.90;;;10.27;;
37781;SDS011;23621;50.878;4.584;2022-12-07T01:23:41;11.20;;;9.48;;
37781;SDS011;23621;50.878;4.584;2022-12-07T01:26:10;12.38;;;10.57;;
37781;SDS011;23621;50.878;4.584;2022-12-07T01:28:38;12.43;;;9.70;;
37781;SDS011;23621;50.878;4.584;2022-12-07T01:31:06;11.13;;;10.02;;
37781;SDS011;23621;50.878;4.584;2022-12-07T01:33:39;14.70;;;10.50;;
37781;SDS011;23621;50.878;4.584;2022-12-07T01:38:34;14.05;;;10.45;;
37781;SDS011;23621;50.878;4.584;2022-12-07T01:41:01;16.17;;;10.77;;
37781;SDS011;23621;50.878;4.584;2022-12-07T01:43:29;12.02;;;10.00;;
37781;SDS011;23621;50.878;4.584;2022-12-07T01:46:09;15.20;;;10.20;;
37781;SDS011;23621;50.878;4.584;2022-12-07T01:48:38;14.75;;;10.93;;
37781;SDS011;23621;50.878;4.584;2022-12-07T01:51:11;11.45;;;10.25;;
37781;SDS011;23621;50.878;4.584;2022-12-07T01:53:40;11.55;;;10.25;;
37781;SDS011;23621;50.878;4.584;2022-12-07T01:56:12;12.10;;;10.10;;
37781;SDS011;23621;50.878;4.584;2022-12-07T01:58:45;14.43;;;11.50;;
37781;SDS011;23621;50.878;4.584;2022-12-07T02:01:12;15.48;;;11.20;;
37781;SDS011;23621;50.878;4.584;2022-12-07T02:03:40;15.65;;;10.68;;
37781;SDS011;23621;50.878;4.584;2022-12-07T02:06:09;12.18;;;10.65;;
37781;SDS011;23621;50.878;4.584;2022-12-07T02:08:38;14.30;;;11.82;;
37781;SDS011;23621;50.878;4.584;2022-12-07T02:11:06;15.10;;;11.15;;
37781;SDS011;23621;50.878;4.584;2022-12-07T02:13:35;13.23;;;11.27;;
37781;SDS011;23621;50.878;4.584;2022-12-07T02:18:55;13.85;;;10.82;;
37781;SDS011;23621;50.878;4.584;2022-12-07T02:26:43;11.52;;;10.32;;
37781;SDS011;23621;50.878;4.584;2022-12-07T02:32:28;14.60;;;10.50;;
37781;SDS011;23621;50.878;4.584;2022-12-07T02:34:50;12.98;;;10.60;;
37781;SDS011;23621;50.878;4.584;2022-12-07T02:40:01;12.38;;;11.10;;
37781;SDS011;23621;50.878;4.584;2022-12-07T02:42:58;13.43;;;10.93;;
37781;SDS011;23621;50.878;4.584;2022-12-07T02:45:42;12.43;;;10.50;;
37781;SDS011;23621;50.878;4.584;2022-12-07T02:48:12;11.43;;;9.63;;
37781;SDS011;23621;50.878;4.584;2022-12-07T02:50:47;13.02;;;10.13;;
37781;SDS011;23621;50.878;4.584;2022-12-07T02:53:41;11.95;;;10.30;;
37781;SDS011;23621;50.878;4.584;2022-12-07T03:07:25;12.75;;;9.85;;
37781;SDS011;23621;50.878;4.584;2022-12-07T03:10:55;12.48;;;9.63;;
37781;SDS011;23621;50.878;4.584;2022-12-07T03:18:40;11.73;;;10.38;;
37781;SDS011;23621;50.878;4.584;2022-12-07T03:21:15;11.50;;;9.98;;
37781;SDS011;23621;50.878;4.584;2022-12-07T03:23:51;11.10;;;9.82;;
37781;SDS011;23621;50.878;4.584;2022-12-07T03:26:21;11.48;;;9.48;;
37781;SDS011;23621;50.878;4.584;2022-12-07T03:28:54;12.35;;;9.82;;
37781;SDS011;23621;50.878;4.584;2022-12-07T03:31:25;11.18;;;9.68;;
37781;SDS011;23621;50.878;4.584;2022-12-07T03:36:51;11.43;;;9.25;;
37781;SDS011;23621;50.878;4.584;2022-12-07T03:41:59;11.88;;;9.55;;
37781;SDS011;23621;50.878;4.584;2022-12-07T03:44:28;12.73;;;8.82;;
37781;SDS011;23621;50.878;4.584;2022-12-07T03:46:59;10.93;;;8.75;;
37781;SDS011;23621;50.878;4.584;2022-12-07T03:49:39;12.18;;;9.57;;
37781;SDS011;23621;50.878;4.584;2022-12-07T03:52:18;12.25;;;9.18;;
37781;SDS011;23621;50.878;4.584;2022-12-07T03:57:41;12.18;;;9.48;;
37781;SDS011;23621;50.878;4.584;2022-12-07T04:00:10;13.48;;;8.88;;
37781;SDS011;23621;50.878;4.584;2022-12-07T04:02:39;11.43;;;9.65;;
37781;SDS011;23621;50.878;4.584;2022-12-07T04:05:07;11.43;;;8.40;;
37781;SDS011;23621;50.878;4.584;2022-12-07T04:07:34;10.43;;;8.60;;
37781;SDS011;23621;50.878;4.584;2022-12-07T04:10:02;10.38;;;8.70;;
37781;SDS011;23621;50.878;4.584;2022-12-07T04:12:30;10.07;;;8.85;;
37781;SDS011;23621;50.878;4.584;2022-12-07T04:14:57;10.85;;;8.90;;
37781;SDS011;23621;50.878;4.584;2022-12-07T04:17:24;9.63;;;8.63;;
37781;SDS011;23621;50.878;4.584;2022-12-07T04:19:51;10.43;;;8.50;;
37781;SDS011;23621;50.878;4.584;2022-12-07T04:22:18;9.80;;;7.93;;
37781;SDS011;23621;50.878;4.584;2022-12-07T04:24:44;13.77;;;8.73;;
37781;SDS011;23621;50.878;4.584;2022-12-07T04:27:11;9.27;;;7.95;;
37781;SDS011;23621;50.878;4.584;2022-12-07T04:29:39;10.75;;;8.10;;
37781;SDS011;23621;50.878;4.584;2022-12-07T04:32:05;9.73;;;8.38;;
37781;SDS011;23621;50.878;4.584;2022-12-07T04:34:32;12.50;;;8.40;;
37781;SDS011;23621;50.878;4.584;2022-12-07T04:36:59;12.60;;;8.77;;
37781;SDS011;23621;50.878;4.584;2022-12-07T04:39:27;9.93;;;8.55;;
37781;SDS011;23621;50.878;4.584;2022-12-07T04:41:56;10.32;;;7.82;;
37781;SDS011;23621;50.878;4.584;2022-12-07T04:44:24;8.82;;;7.60;;
37781;SDS011;23621;50.878;4.584;2022-12-07T04:46:52;11.85;;;8.25;;
37781;SDS011;23621;50.878;4.584;2022-12-07T04:49:19;11.70;;;7.63;;
37781;SDS011;23621;50.878;4.584;2022-12-07T04:51:46;10.60;;;8.00;;
37781;SDS011;23621;50.878;4.584;2022-12-07T04:54:14;9.30;;;8.10;;
37781;SDS011;23621;50.878;4.584;2022-12-07T04:56:41;8.90;;;7.97;;
37781;SDS011;23621;50.878;4.584;2022-12-07T04:59:09;9.68;;;8.15;;
37781;SDS011;23621;50.878;4.584;2022-12-07T05:01:37;9.82;;;7.63;;
37781;SDS011;23621;50.878;4.584;2022-12-07T05:04:05;8.55;;;7.65;;
37781;SDS011;23621;50.878;4.584;2022-12-07T05:06:32;8.73;;;7.57;;
37781;SDS011;23621;50.878;4.584;2022-12-07T05:08:59;12.70;;;7.55;;
37781;SDS011;23621;50.878;4.584;2022-12-07T05:11:26;9.35;;;7.60;;
37781;SDS011;23621;50.878;4.584;2022-12-07T05:14:10;9.60;;;7.38;;
37781;SDS011;23621;50.878;4.584;2022-12-07T05:16:39;8.75;;;7.22;;
37781;SDS011;23621;50.878;4.584;2022-12-07T05:19:08;12.68;;;7.80;;
37781;SDS011;23621;50.878;4.584;2022-12-07T05:21:36;13.77;;;7.95;;
37781;SDS011;23621;50.878;4.584;2022-12-07T05:24:04;9.05;;;7.70;;
37781;SDS011;23621;50.878;4.584;2022-12-07T05:26:31;11.52;;;7.80;;
37781;SDS011;23621;50.878;4.584;2022-12-07T05:28:58;11.93;;;8.15;;
37781;SDS011;23621;50.878;4.584;2022-12-07T05:31:26;10.27;;;8.15;;
37781;SDS011;23621;50.878;4.584;2022-12-07T05:33:54;9.80;;;8.02;;
37781;SDS011;23621;50.878;4.584;2022-12-07T05:36:21;11.63;;;8.73;;
37781;SDS011;23621;50.878;4.584;2022-12-07T05:38:48;12.00;;;7.82;;
37781;SDS011;23621;50.878;4.584;2022-12-07T05:41:15;9.85;;;7.30;;
37781;SDS011;23621;50.878;4.584;2022-12-07T05:44:02;10.07;;;8.45;;
37781;SDS011;23621;50.878;4.584;2022-12-07T05:46:29;10.25;;;8.23;;
37781;SDS011;23621;50.878;4.584;2022-12-07T05:48:56;10.95;;;8.40;;
37781;SDS011;23621;50.878;4.584;2022-12-07T05:51:23;10.23;;;8.73;;
37781;SDS011;23621;50.878;4.584;2022-12-07T05:53:50;11.30;;;8.82;;
37781;SDS011;23621;50.878;4.584;2022-12-07T05:56:17;12.50;;;8.07;;
37781;SDS011;23621;50.878;4.584;2022-12-07T05:58:44;10.50;;;7.90;;
37781;SDS011;23621;50.878;4.584;2022-12-07T06:01:29;9.82;;;8.38;;
37781;SDS011;23621;50.878;4.584;2022-12-07T06:03:56;9.63;;;7.88;;
37781;SDS011;23621;50.878;4.584;2022-12-07T06:06:23;12.55;;;8.90;;
37781;SDS011;23621;50.878;4.584;2022-12-07T06:08:49;10.57;;;8.50;;
37781;SDS011;23621;50.878;4.584;2022-12-07T06:11:16;13.70;;;9.30;;
37781;SDS011;23621;50.878;4.584;2022-12-07T06:14:02;11.13;;;8.48;;
37781;SDS011;23621;50.878;4.584;2022-12-07T06:16:28;13.00;;;8.93;;
37781;SDS011;23621;50.878;4.584;2022-12-07T06:18:56;11.80;;;9.35;;
37781;SDS011;23621;50.878;4.584;2022-12-07T06:21:23;12.02;;;9.85;;
37781;SDS011;23621;50.878;4.584;2022-12-07T06:23:52;13.30;;;9.63;;
37781;SDS011;23621;50.878;4.584;2022-12-07T06:26:18;12.10;;;9.50;;
37781;SDS011;23621;50.878;4.584;2022-12-07T06:28:46;11.38;;;9.15;;
37781;SDS011;23621;50.878;4.584;2022-12-07T06:31:13;9.77;;;8.38;;
37781;SDS011;23621;50.878;4.584;2022-12-07T06:33:40;10.85;;;8.30;;
37781;SDS011;23621;50.878;4.584;2022-12-07T06:36:07;10.43;;;7.82;;
37781;SDS011;23621;50.878;4.584;2022-12-07T06:38:35;10.43;;;7.78;;
37781;SDS011;23621;50.878;4.584;2022-12-07T06:41:02;13.15;;;7.78;;
37781;SDS011;23621;50.878;4.584;2022-12-07T06:43:28;9.98;;;7.68;;
37781;SDS011;23621;50.878;4.584;2022-12-07T06:45:56;11.30;;;7.75;;
37781;SDS011;23621;50.878;4.584;2022-12-07T06:48:23;10.27;;;8.38;;
37781;SDS011;23621;50.878;4.584;2022-12-07T06:50:50;10.98;;;8.35;;
37781;SDS011;23621;50.878;4.584;2022-12-07T06:53:21;12.13;;;8.20;;
37781;SDS011;23621;50.878;4.584;2022-12-07T06:55:48;10.63;;;7.85;;
37781;SDS011;23621;50.878;4.584;2022-12-07T06:58:15;8.43;;;7.53;;
37781;SDS011;23621;50.878;4.584;2022-12-07T07:00:43;12.18;;;7.68;;
37781;SDS011;23621;50.878;4.584;2022-12-07T07:03:11;10.98;;;8.43;;
37781;SDS011;23621;50.878;4.584;2022-12-07T07:05:38;12.77;;;8.80;;
37781;SDS011;23621;50.878;4.584;2022-12-07T07:08:05;12.10;;;8.48;;
37781;SDS011;23621;50.878;4.584;2022-12-07T07:10:49;13.02;;;8.18;;
37781;SDS011;23621;50.878;4.584;2022-12-07T07:13:17;9.45;;;7.63;;
37781;SDS011;23621;50.878;4.584;2022-12-07T07:15:43;11.80;;;8.32;;
37781;SDS011;23621;50.878;4.584;2022-12-07T07:18:11;12.52;;;7.82;;
37781;SDS011;23621;50.878;4.584;2022-12-07T07:20:38;9.85;;;7.68;;
37781;SDS011;23621;50.878;4.584;2022-12-07T07:23:06;14.02;;;8.10;;
37781;SDS011;23621;50.878;4.584;2022-12-07T07:25:33;12.02;;;7.50;;
37781;SDS011;23621;50.878;4.584;2022-12-07T07:28:00;9.63;;;6.68;;
37781;SDS011;23621;50.878;4.584;2022-12-07T07:30:27;7.43;;;6.60;;
37781;SDS011;23621;50.878;4.584;2022-12-07T07:32:57;9.80;;;6.60;;
37781;SDS011;23621;50.878;4.584;2022-12-07T07:35:26;11.45;;;6.43;;
37781;SDS011;23621;50.878;4.584;2022-12-07T07:37:54;7.95;;;6.75;;
37781;SDS011;23621;50.878;4.584;2022-12-07T07:40:22;8.40;;;6.90;;
37781;SDS011;23621;50.878;4.584;2022-12-07T07:42:50;11.82;;;7.50;;
37781;SDS011;23621;50.878;4.584;2022-12-07T07:45:18;9.98;;;7.63;;
37781;SDS011;23621;50.878;4.584;2022-12-07T07:47:46;9.52;;;7.88;;
37781;SDS011;23621;50.878;4.584;2022-12-07T07:50:13;8.23;;;7.00;;
37781;SDS011;23621;50.878;4.584;2022-12-07T07:52:40;12.52;;;7.75;;
37781;SDS011;23621;50.878;4.584;2022-12-07T07:55:08;9.02;;;7.43;;
37781;SDS011;23621;50.878;4.584;2022-12-07T07:57:35;8.98;;;7.30;;
37781;SDS011;23621;50.878;4.584;2022-12-07T08:00:10;9.98;;;6.75;;
37781;SDS011;23621;50.878;4.584;2022-12-07T08:02:38;9.75;;;7.28;;
37781;SDS011;23621;50.878;4.584;2022-12-07T08:05:06;11.00;;;6.88;;
37781;SDS011;23621;50.878;4.584;2022-12-07T08:07:33;10.40;;;7.95;;
37781;SDS011;23621;50.878;4.584;2022-12-07T08:10:00;10.95;;;6.93;;
37781;SDS011;23621;50.878;4.584;2022-12-07T08:12:28;10.43;;;7.47;;
37781;SDS011;23621;50.878;4.584;2022-12-07T08:14:55;12.02;;;7.53;;
37781;SDS011;23621;50.878;4.584;2022-12-07T08:17:22;10.73;;;6.63;;
37781;SDS011;23621;50.878;4.584;2022-12-07T08:19:48;10.48;;;6.90;;
37781;SDS011;23621;50.878;4.584;2022-12-07T08:22:15;9.18;;;7.03;;
37781;SDS011;23621;50.878;4.584;2022-12-07T08:24:42;10.48;;;7.60;;
37781;SDS011;23621;50.878;4.584;2022-12-07T08:27:09;10.50;;;7.32;;
37781;SDS011;23621;50.878;4.584;2022-12-07T08:29:36;11.02;;;7.22;;
37781;SDS011;23621;50.878;4.584;2022-12-07T08:32:03;10.60;;;6.85;;
37781;SDS011;23621;50.878;4.584;2022-12-07T08:34:35;9.63;;;7.25;;
37781;SDS011;23621;50.878;4.584;2022-12-07T08:37:03;8.57;;;7.35;;
37781;SDS011;23621;50.878;4.584;2022-12-07T08:39:30;7.88;;;6.88;;
37781;SDS011;23621;50.878;4.584;2022-12-07T08:41:58;12.20;;;7.57;;
37781;SDS011;23621;50.878;4.584;2022-12-07T08:44:25;8.85;;;6.97;;
37781;SDS011;23621;50.878;4.584;2022-12-07T08:46:56;12.25;;;7.75;;
37781;SDS011;23621;50.878;4.584;2022-12-07T08:49:46;11.30;;;8.02;;
37781;SDS011;23621;50.878;4.584;2022-12-07T08:52:15;12.25;;;8.77;;
37781;SDS011;23621;50.878;4.584;2022-12-07T08:54:43;9.20;;;8.20;;
37781;SDS011;23621;50.878;4.584;2022-12-07T08:57:11;14.27;;;8.25;;
37781;SDS011;23621;50.878;4.584;2022-12-07T08:59:38;13.05;;;9.07;;
37781;SDS011;23621;50.878;4.584;2022-12-07T09:02:05;10.02;;;8.57;;
37781;SDS011;23621;50.878;4.584;2022-12-07T09:04:33;9.80;;;8.15;;
37781;SDS011;23621;50.878;4.584;2022-12-07T09:07:00;13.27;;;8.32;;
37781;SDS011;23621;50.878;4.584;2022-12-07T09:09:27;11.43;;;8.50;;
37781;SDS011;23621;50.878;4.584;2022-12-07T09:11:54;9.98;;;7.82;;
37781;SDS011;23621;50.878;4.584;2022-12-07T09:14:21;11.18;;;9.30;;
37781;SDS011;23621;50.878;4.584;2022-12-07T09:16:48;10.18;;;8.38;;
37781;SDS011;23621;50.878;4.584;2022-12-07T09:19:15;12.30;;;8.30;;
37781;SDS011;23621;50.878;4.584;2022-12-07T09:21:42;9.32;;;7.88;;
37781;SDS011;23621;50.878;4.584;2022-12-07T09:24:09;11.98;;;8.43;;
37781;SDS011;23621;50.878;4.584;2022-12-07T09:26:37;11.07;;;8.40;;
37781;SDS011;23621;50.878;4.584;2022-12-07T09:29:06;10.70;;;8.27;;
37781;SDS011;23621;50.878;4.584;2022-12-07T09:31:35;14.20;;;8.00;;
37781;SDS011;23621;50.878;4.584;2022-12-07T09:34:02;12.55;;;8.40;;
37781;SDS011;23621;50.878;4.584;2022-12-07T09:36:31;12.18;;;7.95;;
37781;SDS011;23621;50.878;4.584;2022-12-07T09:38:58;11.45;;;7.95;;
37781;SDS011;23621;50.878;4.584;2022-12-07T09:41:25;17.50;;;9.45;;
37781;SDS011;23621;50.878;4.584;2022-12-07T09:43:54;11.93;;;8.38;;
37781;SDS011;23621;50.878;4.584;2022-12-07T09:46:29;11.82;;;7.10;;
37781;SDS011;23621;50.878;4.584;2022-12-07T09:49:00;10.27;;;7.88;;
37781;SDS011;23621;50.878;4.584;2022-12-07T09:51:27;8.93;;;7.10;;
37781;SDS011;23621;50.878;4.584;2022-12-07T09:53:54;7.90;;;6.40;;
37781;SDS011;23621;50.878;4.584;2022-12-07T09:56:23;10.43;;;7.00;;
37781;SDS011;23621;50.878;4.584;2022-12-07T09:58:53;10.88;;;7.05;;
37781;SDS011;23621;50.878;4.584;2022-12-07T10:01:28;8.02;;;5.60;;
37781;SDS011;23621;50.878;4.584;2022-12-07T10:06:39;11.98;;;5.93;;
37781;SDS011;23621;50.878;4.584;2022-12-07T10:09:17;8.90;;;5.95;;
37781;SDS011;23621;50.878;4.584;2022-12-07T10:11:58;8.90;;;6.03;;
37781;SDS011;23621;50.878;4.584;2022-12-07T10:14:33;10.88;;;6.05;;
37781;SDS011;23621;50.878;4.584;2022-12-07T10:17:29;9.70;;;6.30;;
37781;SDS011;23621;50.878;4.584;2022-12-07T10:20:19;10.68;;;5.88;;
37781;SDS011;23621;50.878;4.584;2022-12-07T10:22:57;8.10;;;5.35;;
37781;SDS011;23621;50.878;4.584;2022-12-07T10:25:30;7.55;;;4.72;;
37781;SDS011;23621;50.878;4.584;2022-12-07T10:28:00;7.07;;;4.70;;
37781;SDS011;23621;50.878;4.584;2022-12-07T10:30:29;6.80;;;4.72;;
37781;SDS011;23621;50.878;4.584;2022-12-07T10:32:57;7.65;;;4.57;;
37781;SDS011;23621;50.878;4.584;2022-12-07T10:35:26;10.60;;;4.97;;
37781;SDS011;23621;50.878;4.584;2022-12-07T10:37:55;6.40;;;4.55;;
37781;SDS011;23621;50.878;4.584;2022-12-07T10:40:34;8.50;;;4.85;;
37781;SDS011;23621;50.878;4.584;2022-12-07T10:43:25;6.43;;;4.93;;
37781;SDS011;23621;50.878;4.584;2022-12-07T10:51:27;9.45;;;5.75;;
37781;SDS011;23621;50.878;4.584;2022-12-07T10:56:56;11.98;;;5.40;;
37781;SDS011;23621;50.878;4.584;2022-12-07T10:59:58;9.18;;;4.85;;
37781;SDS011;23621;50.878;4.584;2022-12-07T11:14:09;6.25;;;5.15;;
37781;SDS011;23621;50.878;4.584;2022-12-07T11:19:43;11.07;;;6.25;;
37781;SDS011;23621;50.878;4.584;2022-12-07T11:31:08;7.88;;;5.40;;
37781;SDS011;23621;50.878;4.584;2022-12-07T11:36:37;5.65;;;4.97;;
37781;SDS011;23621;50.878;4.584;2022-12-07T11:42:02;8.57;;;5.60;;
37781;SDS011;23621;50.878;4.584;2022-12-07T11:44:52;8.23;;;5.63;;
37781;SDS011;23621;50.878;4.584;2022-12-07T11:53:18;8.32;;;5.47;;
37781;SDS011;23621;50.878;4.584;2022-12-07T12:00:55;10.52;;;5.40;;
37781;SDS011;23621;50.878;4.584;2022-12-07T12:03:38;8.40;;;5.50;;
37781;SDS011;23621;50.878;4.584;2022-12-07T12:06:18;7.13;;;5.18;;
37781;SDS011;23621;50.878;4.584;2022-12-07T12:08:47;11.68;;;5.63;;
37781;SDS011;23621;50.878;4.584;2022-12-07T12:17:54;7.53;;;5.20;;
37781;SDS011;23621;50.878;4.584;2022-12-07T12:20:26;9.57;;;4.68;;
37781;SDS011;23621;50.878;4.584;2022-12-07T12:25:46;6.22;;;4.47;;
37781;SDS011;23621;50.878;4.584;2022-12-07T12:28:35;7.25;;;4.10;;
37781;SDS011;23621;50.878;4.584;2022-12-07T12:33:52;6.35;;;4.03;;
37781;SDS011;23621;50.878;4.584;2022-12-07T12:36:26;6.78;;;4.20;;
37781;SDS011;23621;50.878;4.584;2022-12-07T12:39:15;5.28;;;3.80;;
37781;SDS011;23621;50.878;4.584;2022-12-07T15:10:14;4.07;;;3.53;;
37781;SDS011;23621;50.878;4.584;2022-12-07T15:13:09;4.57;;;3.67;;
37781;SDS011;23621;50.878;4.584;2022-12-07T15:16:16;5.15;;;3.90;;
37781;SDS011;23621;50.878;4.584;2022-12-07T15:19:24;5.75;;;4.13;;
37781;SDS011;23621;50.878;4.584;2022-12-07T15:22:15;7.53;;;4.55;;
37781;SDS011;23621;50.878;4.584;2022-12-07T15:25:02;9.68;;;5.60;;
37781;SDS011;23621;50.878;4.584;2022-12-07T15:27:51;8.35;;;6.25;;
37781;SDS011;23621;50.878;4.584;2022-12-07T15:30:39;9.27;;;6.47;;
37781;SDS011;23621;50.878;4.584;2022-12-07T15:33:29;8.52;;;5.50;;
37781;SDS011;23621;50.878;4.584;2022-12-07T15:36:20;6.63;;;5.03;;
37781;SDS011;23621;50.878;4.584;2022-12-07T15:39:09;7.93;;;4.85;;
37781;SDS011;23621;50.878;4.584;2022-12-07T15:42:00;6.68;;;4.82;;
37781;SDS011;23621;50.878;4.584;2022-12-07T15:44:47;6.15;;;5.20;;
37781;SDS011;23621;50.878;4.584;2022-12-07T15:47:31;5.22;;;4.72;;
37781;SDS011;23621;50.878;4.584;2022-12-07T15:50:21;5.50;;;5.00;;
37781;SDS011;23621;50.878;4.584;2022-12-07T15:52:48;6.22;;;4.57;;
37781;SDS011;23621;50.878;4.584;2022-12-07T15:55:15;6.43;;;3.70;;
37781;SDS011;23621;50.878;4.584;2022-12-07T15:57:42;4.25;;;3.80;;
37781;SDS011;23621;50.878;4.584;2022-12-07T16:00:09;4.10;;;3.70;;
37781;SDS011;23621;50.878;4.584;2022-12-07T16:02:37;6.28;;;4.00;;
37781;SDS011;23621;50.878;4.584;2022-12-07T16:05:05;7.22;;;4.30;;
37781;SDS011;23621;50.878;4.584;2022-12-07T16:07:33;5.97;;;4.10;;
37781;SDS011;23621;50.878;4.584;2022-12-07T16:09:59;6.30;;;4.68;;
37781;SDS011;23621;50.878;4.584;2022-12-07T16:12:26;4.93;;;4.28;;
37781;SDS011;23621;50.878;4.584;2022-12-07T16:14:53;5.22;;;4.40;;
37781;SDS011;23621;50.878;4.584;2022-12-07T16:17:20;5.75;;;4.03;;
37781;SDS011;23621;50.878;4.584;2022-12-07T16:19:46;5.78;;;3.97;;
37781;SDS011;23621;50.878;4.584;2022-12-07T16:22:13;6.63;;;4.35;;
37781;SDS011;23621;50.878;4.584;2022-12-07T16:24:40;6.68;;;4.03;;
37781;SDS011;23621;50.878;4.584;2022-12-07T16:27:07;6.28;;;4.00;;
37781;SDS011;23621;50.878;4.584;2022-12-07T16:29:34;4.78;;;4.05;;
37781;SDS011;23621;50.878;4.584;2022-12-07T16:32:01;4.25;;;3.80;;
37781;SDS011;23621;50.878;4.584;2022-12-07T16:34:28;6.82;;;4.30;;
37781;SDS011;23621;50.878;4.584;2022-12-07T16:36:54;5.25;;;3.90;;
37781;SDS011;23621;50.878;4.584;2022-12-07T16:39:31;6.43;;;4.15;;
37781;SDS011;23621;50.878;4.584;2022-12-07T16:41:58;5.50;;;3.72;;
37781;SDS011;23621;50.878;4.584;2022-12-07T16:44:25;4.28;;;3.85;;
37781;SDS011;23621;50.878;4.584;2022-12-07T16:46:52;7.00;;;4.05;;
37781;SDS011;23621;50.878;4.584;2022-12-07T16:49:19;4.50;;;3.83;;
37781;SDS011;23621;50.878;4.584;2022-12-07T16:51:48;5.32;;;4.18;;
37781;SDS011;23621;50.878;4.584;2022-12-07T16:54:36;6.05;;;3.97;;
37781;SDS011;23621;50.878;4.584;2022-12-07T16:57:03;6.93;;;4.50;;
37781;SDS011;23621;50.878;4.584;2022-12-07T16:59:29;6.28;;;3.92;;
37781;SDS011;23621;50.878;4.584;2022-12-07T17:01:57;6.25;;;4.03;;
37781;SDS011;23621;50.878;4.584;2022-12-07T17:04:24;5.78;;;3.78;;
37781;SDS011;23621;50.878;4.584;2022-12-07T17:06:51;6.18;;;4.25;;
37781;SDS011;23621;50.878;4.584;2022-12-07T17:09:18;5.78;;;4.07;;
37781;SDS011;23621;50.878;4.584;2022-12-07T17:11:47;9.45;;;4.65;;
37781;SDS011;23621;50.878;4.584;2022-12-07T17:14:14;5.38;;;3.95;;
37781;SDS011;23621;50.878;4.584;2022-12-07T17:17:00;5.18;;;3.85;;
37781;SDS011;23621;50.878;4.584;2022-12-07T17:19:27;4.32;;;3.47;;
37781;SDS011;23621;50.878;4.584;2022-12-07T17:21:54;5.68;;;3.78;;
37781;SDS011;23621;50.878;4.584;2022-12-07T17:24:20;4.53;;;3.20;;
37781;SDS011;23621;50.878;4.584;2022-12-07T17:26:47;4.18;;;3.78;;
37781;SDS011;23621;50.878;4.584;2022-12-07T17:29:15;5.05;;;3.70;;
37781;SDS011;23621;50.878;4.584;2022-12-07T17:31:44;5.38;;;3.65;;
37781;SDS011;23621;50.878;4.584;2022-12-07T17:34:17;5.43;;;3.58;;
37781;SDS011;23621;50.878;4.584;2022-12-07T17:36:45;5.03;;;4.03;;
37781;SDS011;23621;50.878;4.584;2022-12-07T17:39:14;5.95;;;4.35;;
37781;SDS011;23621;50.878;4.584;2022-12-07T17:41:43;5.95;;;4.43;;
37781;SDS011;23621;50.878;4.584;2022-12-07T17:44:29;8.10;;;4.82;;
37781;SDS011;23621;50.878;4.584;2022-12-07T17:46:56;8.40;;;5.82;;
37781;SDS011;23621;50.878;4.584;2022-12-07T17:49:24;9.73;;;5.93;;
37781;SDS011;23621;50.878;4.584;2022-12-07T17:51:52;7.40;;;5.85;;
37781;SDS011;23621;50.878;4.584;2022-12-07T17:54:37;8.10;;;5.60;;
37781;SDS011;23621;50.878;4.584;2022-12-07T17:57:04;6.28;;;5.57;;
37781;SDS011;23621;50.878;4.584;2022-12-07T17:59:32;6.10;;;5.22;;
37781;SDS011;23621;50.878;4.584;2022-12-07T18:01:59;6.35;;;5.18;;
37781;SDS011;23621;50.878;4.584;2022-12-07T18:04:26;7.07;;;5.32;;
37781;SDS011;23621;50.878;4.584;2022-12-07T18:06:52;8.02;;;5.53;;
37781;SDS011;23621;50.878;4.584;2022-12-07T18:09:19;8.05;;;5.95;;
37781;SDS011;23621;50.878;4.584;2022-12-07T18:11:47;7.57;;;5.30;;
37781;SDS011;23621;50.878;4.584;2022-12-07T18:14:14;8.48;;;5.72;;
37781;SDS011;23621;50.878;4.584;2022-12-07T18:16:42;6.70;;;5.32;;
37781;SDS011;23621;50.878;4.584;2022-12-07T18:19:09;7.95;;;5.95;;
37781;SDS011;23621;50.878;4.584;2022-12-07T18:21:38;7.88;;;5.82;;
37781;SDS011;23621;50.878;4.584;2022-12-07T18:24:07;11.00;;;6.30;;
37781;SDS011;23621;50.878;4.584;2022-12-07T18:26:36;9.30;;;6.30;;
37781;SDS011;23621;50.878;4.584;2022-12-07T18:29:04;8.00;;;5.93;;
37781;SDS011;23621;50.878;4.584;2022-12-07T18:31:33;11.30;;;7.07;;
37781;SDS011;23621;50.878;4.584;2022-12-07T18:34:04;9.55;;;5.97;;
37781;SDS011;23621;50.878;4.584;2022-12-07T18:36:40;6.72;;;6.05;;
37781;SDS011;23621;50.878;4.584;2022-12-07T18:39:11;9.23;;;6.28;;
37781;SDS011;23621;50.878;4.584;2022-12-07T18:41:39;7.75;;;5.95;;
37781;SDS011;23621;50.878;4.584;2022-12-07T18:44:07;7.05;;;6.30;;
37781;SDS011;23621;50.878;4.584;2022-12-07T18:46:35;10.20;;;6.57;;
37781;SDS011;23621;50.878;4.584;2022-12-07T18:49:02;9.10;;;7.22;;
37781;SDS011;23621;50.878;4.584;2022-12-07T18:51:29;9.13;;;6.38;;
37781;SDS011;23621;50.878;4.584;2022-12-07T18:53:58;8.15;;;6.80;;
37781;SDS011;23621;50.878;4.584;2022-12-07T18:56:26;9.43;;;7.38;;
37781;SDS011;23621;50.878;4.584;2022-12-07T18:58:58;11.63;;;7.25;;
37781;SDS011;23621;50.878;4.584;2022-12-07T19:01:46;9.65;;;7.03;;
37781;SDS011;23621;50.878;4.584;2022-12-07T19:04:20;10.40;;;7.38;;
37781;SDS011;23621;50.878;4.584;2022-12-07T19:06:48;9.98;;;7.78;;
37781;SDS011;23621;50.878;4.584;2022-12-07T19:09:15;13.05;;;8.50;;
37781;SDS011;23621;50.878;4.584;2022-12-07T19:11:43;11.07;;;8.40;;
37781;SDS011;23621;50.878;4.584;2022-12-07T19:14:21;9.82;;;8.73;;